Time;durP1;ratioP1;P1;durP2;ratioP2;P2;SDS_P1;SDS_P2;PMS_P1;PMS_P2;Temp;Humidity;BMP_temperature;BMP_pressure;BME280_temperature;BME280_humidity;BME280_pressure;Samples;Min_cycle;Max_cycle;Signal;HPM_P1;HPM_P2
2021/12/01 00:01:48;;;;;;;10.95;3.38;;;22.60;44.00;;;;;;5029274;28;20398;-66
2021/12/01 00:04:14;;;;;;;8.43;3.47;;;22.60;44.10;;;;;;5025664;28;20423;-66
2021/12/01 00:06:40;;;;;;;9.45;2.95;;;22.50;43.80;;;;;;5030557;28;20038;-66
2021/12/01 00:09:05;;;;;;;9.88;3.70;;;22.50;44.00;;;;;;5031348;28;20140;-66
2021/12/01 00:11:31;;;;;;;8.15;2.78;;;22.50;43.90;;;;;;5029132;28;20044;-66
2021/12/01 00:13:57;;;;;;;10.77;3.10;;;22.50;44.00;;;;;;5028511;28;20041;-66
2021/12/01 00:16:23;;;;;;;10.48;2.45;;;22.50;44.00;;;;;;5031625;28;20037;-66
2021/12/01 00:18:49;;;;;;;7.35;2.28;;;22.50;44.10;;;;;;5034530;28;20049;-66
2021/12/01 00:21:15;;;;;;;10.45;2.95;;;22.50;44.20;;;;;;5031561;28;20041;-66
2021/12/01 00:23:40;;;;;;;8.07;2.63;;;22.40;43.90;;;;;;5027379;28;20032;-66
2021/12/01 00:26:06;;;;;;;6.85;2.60;;;22.40;44.10;;;;;;5028052;28;20159;-66
2021/12/01 00:28:32;;;;;;;8.38;2.25;;;22.40;44.10;;;;;;5029574;28;20065;-66
2021/12/01 00:30:58;;;;;;;8.18;2.40;;;22.40;44.10;;;;;;5031783;28;20053;-66
2021/12/01 00:33:24;;;;;;;5.57;1.92;;;22.40;44.10;;;;;;5030195;28;20049;-66
2021/12/01 00:35:55;;;;;;;7.15;1.92;;;22.40;44.40;;;;;;5025183;28;20037;-66
2021/12/01 00:38:23;;;;;;;6.93;2.08;;;22.40;44.20;;;;;;5023758;28;20475;-66
2021/12/01 00:40:50;;;;;;;8.38;2.15;;;22.30;44.10;;;;;;5026622;28;20044;-66
2021/12/01 00:43:17;;;;;;;5.88;2.03;;;22.30;44.10;;;;;;5029587;28;20041;-66
2021/12/01 00:46:00;;;;;;;6.80;1.70;;;22.30;44.00;;;;;;5027387;28;20569;-66
2021/12/01 00:48:26;;;;;;;6.03;1.85;;;22.30;44.10;;;;;;5028560;28;20037;-66
2021/12/01 00:50:53;;;;;;;6.78;1.80;;;22.30;44.30;;;;;;5032383;28;20054;-66
2021/12/01 00:53:19;;;;;;;4.70;1.40;;;22.30;44.20;;;;;;5031027;28;20042;-66
2021/12/01 00:55:45;;;;;;;6.05;1.50;;;22.30;44.50;;;;;;5026312;28;20697;-65
2021/12/01 00:58:14;;;;;;;4.15;1.30;;;22.30;44.40;;;;;;5028913;28;20083;-65
2021/12/01 01:00:41;;;;;;;4.75;1.20;;;22.20;44.00;;;;;;5030869;28;20057;-65
2021/12/01 01:03:08;;;;;;;5.57;1.27;;;22.20;44.10;;;;;;5026516;28;20048;-65
2021/12/01 01:05:35;;;;;;;4.40;1.30;;;22.20;44.20;;;;;;5024259;28;20046;-66
2021/12/01 01:08:00;;;;;;;5.25;1.40;;;22.20;44.20;;;;;;5027789;28;20495;-66
2021/12/01 01:16:22;;;;;;;4.28;1.10;;;22.20;44.20;;;;;;5020325;28;20128;-65
2021/12/01 01:18:57;;;;;;;3.55;1.00;;;22.20;44.40;;;;;;5024757;28;20086;-66
2021/12/01 01:21:24;;;;;;;5.03;1.25;;;22.20;44.10;;;;;;5027637;28;20095;-65
2021/12/01 01:23:50;;;;;;;4.13;1.20;;;22.20;44.40;;;;;;5027625;28;20033;-66
2021/12/01 01:26:18;;;;;;;3.47;0.98;;;22.20;44.40;;;;;;5027193;28;20159;-66
2021/12/01 01:28:44;;;;;;;6.18;1.10;;;22.20;44.40;;;;;;5028075;28;20045;-66
2021/12/01 01:31:10;;;;;;;3.42;0.90;;;22.20;44.30;;;;;;5025343;28;20037;-65
2021/12/01 01:33:36;;;;;;;2.80;0.90;;;22.10;44.10;;;;;;5027702;28;20049;-66
2021/12/01 01:36:02;;;;;;;3.40;0.90;;;22.10;44.10;;;;;;5026913;28;20064;-65
2021/12/01 01:38:31;;;;;;;3.00;0.80;;;22.10;44.80;;;;;;5026140;28;20049;-63
2021/12/01 01:40:59;;;;;;;3.45;0.77;;;22.10;44.20;;;;;;5026586;28;20041;-65
2021/12/01 01:43:24;;;;;;;3.75;0.90;;;22.10;44.20;;;;;;5025488;28;20149;-64
2021/12/01 01:45:55;;;;;;;4.28;1.05;;;22.10;44.50;;;;;;5026193;28;20123;-65
2021/12/01 01:48:31;;;;;;;4.80;0.70;;;22.10;44.20;;;;;;5025789;28;20786;-65
2021/12/01 01:51:00;;;;;;;3.15;0.90;;;22.10;44.40;;;;;;5030822;28;20041;-66
2021/12/01 01:53:28;;;;;;;3.95;0.75;;;22.10;44.30;;;;;;5027278;28;20072;-65
2021/12/01 01:55:58;;;;;;;2.33;0.50;;;22.10;44.20;;;;;;5028081;28;20087;-65
2021/12/01 01:58:26;;;;;;;2.83;0.65;;;22.10;44.30;;;;;;5028116;28;20076;-64
2021/12/01 02:01:06;;;;;;;2.83;0.70;;;22.10;44.50;;;;;;5026420;28;20041;-65
2021/12/01 02:03:43;;;;;;;2.72;0.80;;;22.10;44.30;;;;;;5026673;28;20094;-65
2021/12/01 02:06:11;;;;;;;2.72;0.70;;;22.00;44.30;;;;;;5023318;28;20133;-65
2021/12/01 02:08:40;;;;;;;2.42;0.60;;;22.00;43.80;;;;;;5026735;28;20049;-64
2021/12/01 02:11:12;;;;;;;3.38;0.70;;;22.00;44.10;;;;;;5027648;28;20081;-66
2021/12/01 02:13:41;;;;;;;2.28;0.60;;;22.00;44.40;;;;;;5027070;28;20466;-65
2021/12/01 02:16:08;;;;;;;2.30;0.60;;;22.10;44.50;;;;;;5020454;28;20033;-65
2021/12/01 02:18:34;;;;;;;2.50;0.50;;;22.10;44.50;;;;;;5026721;28;20143;-66
2021/12/01 02:21:13;;;;;;;1.60;0.40;;;22.00;44.30;;;;;;5028610;28;20514;-66
2021/12/01 02:23:45;;;;;;;4.15;0.45;;;22.00;44.20;;;;;;5026778;28;20044;-66
2021/12/01 02:26:13;;;;;;;2.35;0.60;;;22.10;44.70;;;;;;5021120;28;20042;-66
2021/12/01 02:28:41;;;;;;;2.17;0.50;;;22.00;44.30;;;;;;5025193;28;20052;-66
2021/12/01 02:31:07;;;;;;;1.95;0.60;;;22.00;44.50;;;;;;5025165;28;20530;-66
2021/12/01 02:33:32;;;;;;;1.98;0.50;;;22.00;44.50;;;;;;5023501;28;20042;-65
2021/12/01 02:35:58;;;;;;;3.30;0.60;;;22.00;44.30;;;;;;5024890;28;20136;-66
2021/12/01 02:38:25;;;;;;;2.10;0.40;;;22.00;44.60;;;;;;5024683;28;20046;-66
2021/12/01 02:40:51;;;;;;;1.67;0.35;;;22.00;44.60;;;;;;5024662;28;20145;-65
2021/12/01 02:43:18;;;;;;;1.75;0.43;;;22.00;44.30;;;;;;5025493;28;20040;-65
2021/12/01 02:45:44;;;;;;;1.00;0.35;;;22.00;44.50;;;;;;5027170;28;20042;-66
2021/12/01 02:48:13;;;;;;;1.30;0.38;;;22.00;44.70;;;;;;5023014;28;20041;-66
2021/12/01 02:50:42;;;;;;;1.63;0.40;;;22.00;44.80;;;;;;5024822;28;20045;-66
2021/12/01 02:53:08;;;;;;;2.13;0.43;;;22.00;44.50;;;;;;5023485;28;20164;-66
2021/12/01 02:55:41;;;;;;;1.35;0.40;;;22.00;44.60;;;;;;5027414;28;20078;-66
2021/12/01 02:58:08;;;;;;;1.60;0.40;;;21.90;44.50;;;;;;5027856;28;20045;-65
2021/12/01 03:00:34;;;;;;;1.42;0.40;;;21.90;44.60;;;;;;5025131;28;20111;-66
2021/12/01 03:03:01;;;;;;;1.33;0.40;;;22.00;44.80;;;;;;5030770;28;20033;-66
2021/12/01 03:05:27;;;;;;;1.05;0.30;;;22.00;44.70;;;;;;5029271;28;20046;-66
2021/12/01 03:07:53;;;;;;;1.02;0.38;;;21.90;44.40;;;;;;5028260;28;20087;-66
2021/12/01 03:10:19;;;;;;;1.38;0.30;;;22.00;44.70;;;;;;5030662;28;20115;-68
2021/12/01 03:12:45;;;;;;;1.92;0.43;;;21.90;44.40;;;;;;5031409;28;20507;-68
2021/12/01 03:15:15;;;;;;;0.85;0.30;;;21.90;44.30;;;;;;5030459;28;20045;-68
2021/12/01 03:17:41;;;;;;;1.20;0.40;;;21.90;44.20;;;;;;5030501;28;20034;-65
2021/12/01 03:20:12;;;;;;;1.90;0.30;;;22.00;44.70;;;;;;5030058;28;20045;-65
2021/12/01 03:22:37;;;;;;;0.30;0.20;;;22.00;44.90;;;;;;5031473;28;20041;-65
2021/12/01 03:25:13;;;;;;;1.50;0.50;;;21.90;44.60;;;;;;5030884;28;20037;-65
2021/12/01 03:27:40;;;;;;;2.35;0.30;;;21.90;44.50;;;;;;5027519;28;20040;-67
2021/12/01 03:30:11;;;;;;;0.93;0.40;;;21.90;44.70;;;;;;5029100;28;20042;-65
2021/12/01 03:32:39;;;;;;;1.10;0.40;;;21.90;44.70;;;;;;5026053;28;20029;-68
2021/12/01 03:35:10;;;;;;;1.67;0.40;;;21.90;44.80;;;;;;5030313;28;20048;-67
2021/12/01 03:37:37;;;;;;;2.83;0.50;;;21.90;44.60;;;;;;5031842;28;20052;-65
2021/12/01 03:40:04;;;;;;;0.77;0.30;;;21.90;44.80;;;;;;5027995;28;20120;-65
2021/12/01 03:42:30;;;;;;;1.63;0.40;;;21.90;44.70;;;;;;5028589;28;20415;-66
2021/12/01 03:44:56;;;;;;;1.85;0.50;;;21.90;44.70;;;;;;5031068;28;20041;-65
2021/12/01 03:47:23;;;;;;;1.50;0.30;;;21.90;44.80;;;;;;5028326;28;20045;-65
2021/12/01 03:49:49;;;;;;;2.28;0.50;;;21.90;44.80;;;;;;5025995;28;20093;-65
2021/12/01 03:52:17;;;;;;;0.82;0.32;;;21.80;44.50;;;;;;5028527;28;20045;-65
2021/12/01 03:54:47;;;;;;;2.15;0.60;;;21.90;44.70;;;;;;5032567;28;20045;-65
2021/12/01 03:57:14;;;;;;;1.15;0.40;;;21.80;44.20;;;;;;5030639;28;20045;-65
2021/12/01 03:59:40;;;;;;;1.35;0.50;;;21.90;44.60;;;;;;5030416;28;20036;-65
2021/12/01 04:02:06;;;;;;;2.58;0.68;;;21.80;44.50;;;;;;5031074;28;20136;-66
2021/12/01 04:04:32;;;;;;;3.25;0.60;;;21.90;44.90;;;;;;5032769;28;20400;-65
2021/12/01 04:06:58;;;;;;;1.35;0.50;;;21.90;44.60;;;;;;5027280;28;20095;-65
2021/12/01 04:09:26;;;;;;;1.98;0.60;;;21.80;44.60;;;;;;5028599;28;20033;-67
2021/12/01 04:11:51;;;;;;;1.95;0.50;;;21.90;44.70;;;;;;5028949;28;20045;-65
2021/12/01 04:14:17;;;;;;;1.75;0.68;;;21.90;45.00;;;;;;5029863;28;20151;-65
2021/12/01 04:16:43;;;;;;;1.42;0.60;;;21.80;44.60;;;;;;5026519;28;20037;-65
2021/12/01 04:19:09;;;;;;;2.13;0.60;;;21.80;44.50;;;;;;5026945;28;20045;-65
2021/12/01 04:21:35;;;;;;;2.42;0.70;;;21.90;44.50;;;;;;5030827;28;20053;-65
2021/12/01 04:24:01;;;;;;;1.60;0.50;;;21.90;44.90;;;;;;5025536;28;20048;-65
2021/12/01 04:26:31;;;;;;;1.95;0.60;;;21.90;44.70;;;;;;5027574;28;20045;-65
2021/12/01 04:28:57;;;;;;;1.92;0.60;;;21.80;44.70;;;;;;5028157;28;20136;-67
2021/12/01 04:31:22;;;;;;;1.52;0.60;;;21.90;45.00;;;;;;5029841;28;20128;-65
2021/12/01 04:33:48;;;;;;;4.30;0.60;;;21.80;44.60;;;;;;5032970;28;20033;-67
2021/12/01 04:36:17;;;;;;;6.07;0.90;;;21.90;44.50;;;;;;5023713;28;20042;-66
2021/12/01 04:38:43;;;;;;;7.78;0.63;;;21.80;44.10;;;;;;5027792;28;20041;-67
2021/12/01 04:41:12;;;;;;;2.10;0.60;;;21.80;44.70;;;;;;5026005;28;20051;-68
2021/12/01 04:43:38;;;;;;;2.47;0.80;;;21.80;45.00;;;;;;5029276;28;20033;-67
2021/12/01 04:46:04;;;;;;;4.25;0.68;;;21.80;44.80;;;;;;5029476;28;20046;-68
2021/12/01 04:48:31;;;;;;;5.50;0.60;;;21.80;44.80;;;;;;5032549;28;20410;-67
2021/12/01 04:50:57;;;;;;;2.55;0.70;;;21.90;45.10;;;;;;5029668;28;20041;-67
2021/12/01 04:53:25;;;;;;;1.88;0.60;;;21.80;45.10;;;;;;5023906;28;20096;-67
2021/12/01 04:55:52;;;;;;;3.30;0.65;;;21.80;44.90;;;;;;5030744;28;20045;-67
2021/12/01 04:58:18;;;;;;;3.28;0.80;;;21.80;44.90;;;;;;5024971;28;20046;-67
2021/12/01 05:00:44;;;;;;;2.22;0.60;;;21.80;45.00;;;;;;5027258;28;20053;-67
2021/12/01 05:03:09;;;;;;;2.47;0.80;;;21.80;44.60;;;;;;5024666;28;20033;-68
2021/12/01 05:05:35;;;;;;;3.47;0.80;;;21.80;44.10;;;;;;5028084;28;20065;-67
2021/12/01 05:08:03;;;;;;;1.63;0.60;;;21.80;44.30;;;;;;5026053;28;20453;-67
2021/12/01 05:10:29;;;;;;;1.90;0.63;;;21.80;44.30;;;;;;5027922;28;20041;-67
2021/12/01 05:12:54;;;;;;;2.88;0.70;;;21.80;44.30;;;;;;5027639;28;20040;-67
2021/12/01 05:15:23;;;;;;;2.88;0.73;;;21.80;44.60;;;;;;5026385;28;20522;-67
2021/12/01 05:17:51;;;;;;;2.78;0.77;;;21.80;44.60;;;;;;5024784;28;20446;-67
2021/12/01 05:20:17;;;;;;;3.53;0.80;;;21.90;44.80;;;;;;5026805;28;20434;-67
2021/12/01 05:22:44;;;;;;;2.63;0.90;;;21.80;44.50;;;;;;5028152;28;20029;-67
2021/12/01 05:25:10;;;;;;;3.88;0.90;;;21.80;44.80;;;;;;5026979;28;20998;-65
2021/12/01 05:27:37;;;;;;;12.15;0.82;;;21.80;44.70;;;;;;5026962;28;20041;-67
2021/12/01 05:30:04;;;;;;;4.32;0.68;;;21.80;44.90;;;;;;5023409;28;20033;-67
2021/12/01 05:32:31;;;;;;;13.45;1.10;;;21.80;45.40;;;;;;5024142;28;20053;-68
2021/12/01 05:34:57;;;;;;;7.75;0.82;;;21.80;45.50;;;;;;5026915;28;20533;-70
2021/12/01 05:37:24;;;;;;;6.28;0.90;;;21.80;44.90;;;;;;5026858;28;22130;-68
2021/12/01 05:39:50;;;;;;;9.15;1.00;;;21.80;45.60;;;;;;5027301;28;20045;-68
2021/12/01 05:42:18;;;;;;;11.95;1.02;;;21.80;45.60;;;;;;5027251;28;20041;-67
2021/12/01 05:44:46;;;;;;;7.32;0.73;;;21.80;46.10;;;;;;5027836;28;20491;-68
2021/12/01 05:47:12;;;;;;;8.65;0.90;;;21.80;46.10;;;;;;5025915;28;20045;-68
2021/12/01 05:49:42;;;;;;;8.15;1.05;;;21.90;46.30;;;;;;5030055;28;20037;-68
2021/12/01 05:52:09;;;;;;;7.82;0.70;;;21.80;46.00;;;;;;5025709;28;20699;-67
2021/12/01 05:54:35;;;;;;;6.95;0.90;;;21.80;45.80;;;;;;5026032;28;20037;-67
2021/12/01 05:57:01;;;;;;;10.80;0.88;;;21.80;46.30;;;;;;5028467;28;20573;-67
2021/12/01 05:59:27;;;;;;;3.90;0.80;;;21.80;45.80;;;;;;5024612;28;20037;-66
2021/12/01 06:01:52;;;;;;;8.18;1.10;;;21.80;45.40;;;;;;5027259;28;20604;-67
2021/12/01 06:04:18;;;;;;;7.72;1.20;;;21.80;45.60;;;;;;5027568;28;20847;-67
2021/12/01 06:06:44;;;;;;;21.70;1.70;;;21.80;45.90;;;;;;5027660;28;20029;-67
2021/12/01 06:09:09;;;;;;;20.23;1.67;;;21.80;45.90;;;;;;5027227;28;20038;-66
2021/12/01 06:11:36;;;;;;;10.70;1.58;;;21.80;45.30;;;;;;5024926;28;20125;-67
2021/12/01 06:14:01;;;;;;;10.00;1.40;;;21.70;44.50;;;;;;5028026;28;20425;-66
2021/12/01 06:16:27;;;;;;;7.13;1.48;;;21.70;44.10;;;;;;5026998;28;20030;-67
2021/12/01 06:18:53;;;;;;;15.05;1.50;;;21.70;43.80;;;;;;5023918;28;20056;-66
2021/12/01 06:21:19;;;;;;;9.48;1.92;;;21.70;44.30;;;;;;5027598;28;20038;-66
2021/12/01 06:23:45;;;;;;;11.48;1.67;;;21.70;44.60;;;;;;5024755;28;20144;-67
2021/12/01 06:26:10;;;;;;;34.28;3.70;;;21.70;45.00;;;;;;5026505;28;20091;-67
2021/12/01 06:28:37;;;;;;;10.50;1.83;;;21.70;45.80;;;;;;5028318;28;20677;-67
2021/12/01 06:31:03;;;;;;;17.00;2.53;;;21.70;45.10;;;;;;5029527;28;20099;-66
2021/12/01 06:33:29;;;;;;;14.15;2.55;;;21.70;45.80;;;;;;5026508;28;20506;-67
2021/12/01 06:35:55;;;;;;;29.23;2.28;;;21.70;45.20;;;;;;5027076;28;20050;-67
2021/12/01 06:38:21;;;;;;;8.73;1.70;;;21.70;44.80;;;;;;5024029;28;21078;-67
2021/12/01 06:40:48;;;;;;;19.85;1.80;;;21.70;44.60;;;;;;5030837;28;20142;-67
2021/12/01 06:43:14;;;;;;;9.82;2.10;;;21.70;44.60;;;;;;5028439;28;20571;-67
2021/12/01 06:45:39;;;;;;;13.98;2.42;;;21.70;44.50;;;;;;5028212;28;20061;-67
2021/12/01 06:48:06;;;;;;;10.23;2.03;;;21.80;44.50;;;;;;5031276;28;20037;-65
2021/12/01 06:50:32;;;;;;;12.57;1.73;;;21.70;44.20;;;;;;5034773;28;20127;-67
2021/12/01 06:52:58;;;;;;;7.28;1.80;;;21.80;44.20;;;;;;5030566;28;20037;-67
2021/12/01 06:55:24;;;;;;;10.95;1.77;;;21.70;44.00;;;;;;5032828;28;20095;-67
2021/12/01 06:57:50;;;;;;;8.27;1.73;;;21.70;44.10;;;;;;5027902;28;20406;-67
2021/12/01 07:00:17;;;;;;;8.48;1.30;;;21.80;44.20;;;;;;5027802;28;20041;-67
2021/12/01 07:02:43;;;;;;;9.30;1.70;;;21.70;43.90;;;;;;5029352;28;20515;-67
2021/12/01 07:05:09;;;;;;;7.30;1.50;;;21.80;44.20;;;;;;5028207;28;20080;-67
2021/12/01 07:07:36;;;;;;;11.82;1.65;;;21.80;44.90;;;;;;5035569;28;20033;-67
2021/12/01 07:10:04;;;;;;;6.63;1.67;;;21.80;44.20;;;;;;5030556;28;20044;-65
2021/12/01 07:12:29;;;;;;;12.60;1.83;;;21.70;44.00;;;;;;5031545;28;20041;-66
2021/12/01 07:14:55;;;;;;;7.43;1.70;;;21.80;44.20;;;;;;5029126;28;20623;-66
2021/12/01 07:17:21;;;;;;;9.50;1.77;;;21.80;44.10;;;;;;5028068;28;20041;-66
2021/12/01 07:19:48;;;;;;;7.50;1.80;;;21.70;44.00;;;;;;5028443;28;20029;-67
2021/12/01 07:22:14;;;;;;;14.52;1.77;;;21.70;43.90;;;;;;5029044;28;20533;-67
2021/12/01 07:24:40;;;;;;;5.57;1.67;;;21.80;44.20;;;;;;5031155;28;20351;-67
2021/12/01 07:27:06;;;;;;;9.90;1.70;;;21.70;44.10;;;;;;5027336;28;20052;-67
2021/12/01 07:29:31;;;;;;;7.85;1.70;;;21.70;44.10;;;;;;5028124;28;20060;-67
2021/12/01 07:31:57;;;;;;;9.02;1.70;;;21.70;44.10;;;;;;5026207;28;20090;-67
2021/12/01 07:34:23;;;;;;;8.88;2.13;;;21.70;44.00;;;;;;5027898;28;20137;-66
2021/12/01 07:36:49;;;;;;;5.57;1.50;;;21.80;44.20;;;;;;5029330;28;20029;-65
2021/12/01 07:39:14;;;;;;;8.52;1.55;;;21.70;44.00;;;;;;5026554;28;20068;-67
2021/12/01 07:41:40;;;;;;;6.60;1.92;;;21.70;44.00;;;;;;5028850;28;20052;-67
2021/12/01 07:44:06;;;;;;;7.15;1.90;;;21.80;44.20;;;;;;5025899;28;20107;-67
2021/12/01 07:46:31;;;;;;;6.88;1.40;;;21.70;44.10;;;;;;5025867;28;20045;-67
2021/12/01 07:48:57;;;;;;;7.93;1.65;;;21.70;44.10;;;;;;5030635;28;20414;-67
2021/12/01 07:51:23;;;;;;;6.57;1.80;;;21.80;44.20;;;;;;5025577;28;21434;-67
2021/12/01 07:53:49;;;;;;;6.30;1.45;;;21.80;44.10;;;;;;5026610;28;20044;-67
2021/12/01 07:56:15;;;;;;;8.02;1.70;;;21.70;44.10;;;;;;5029542;28;20491;-67
2021/12/01 07:58:40;;;;;;;4.72;1.40;;;21.70;44.00;;;;;;5026235;28;20049;-67
2021/12/01 08:01:06;;;;;;;10.52;1.90;;;21.80;44.20;;;;;;5026379;28;20045;-67
2021/12/01 08:03:31;;;;;;;6.32;1.45;;;21.70;44.70;;;;;;5028784;28;20034;-67
2021/12/01 08:05:57;;;;;;;5.80;1.52;;;21.70;43.90;;;;;;5027051;28;20414;-67
2021/12/01 08:08:23;;;;;;;8.50;1.60;;;21.80;44.20;;;;;;5024014;28;20061;-67
2021/12/01 08:10:49;;;;;;;5.07;1.40;;;21.80;44.20;;;;;;5026682;28;20037;-66
2021/12/01 08:13:14;;;;;;;5.78;1.42;;;21.70;43.90;;;;;;5031687;28;20136;-67
2021/12/01 08:15:40;;;;;;;7.05;1.55;;;21.80;44.20;;;;;;5033346;28;20038;-67
2021/12/01 08:18:06;;;;;;;5.57;1.30;;;21.70;44.00;;;;;;5022820;28;20076;-67
2021/12/01 08:20:33;;;;;;;6.22;1.50;;;21.70;44.10;;;;;;5023295;28;20037;-67
2021/12/01 08:22:59;;;;;;;6.95;1.50;;;21.80;44.20;;;;;;5031901;28;20124;-67
2021/12/01 08:25:25;;;;;;;5.60;1.33;;;21.80;44.20;;;;;;5032658;28;20171;-67
2021/12/01 08:27:51;;;;;;;6.03;1.40;;;21.70;43.90;;;;;;5029112;28;20087;-67
2021/12/01 08:30:16;;;;;;;4.25;1.10;;;21.80;44.20;;;;;;5028504;28;20091;-67
2021/12/01 08:32:45;;;;;;;5.57;1.45;;;21.70;44.10;;;;;;5030807;28;20043;-67
2021/12/01 08:35:15;;;;;;;6.53;1.40;;;21.70;44.00;;;;;;5029735;28;20128;-66
2021/12/01 08:37:42;;;;;;;5.00;1.50;;;21.70;44.10;;;;;;5027356;28;20044;-66
2021/12/01 08:40:09;;;;;;;5.07;1.30;;;21.70;44.00;;;;;;5028682;28;20043;-67
2021/12/01 08:42:35;;;;;;;6.80;1.38;;;21.70;44.00;;;;;;5029974;28;20034;-66
2021/12/01 08:45:01;;;;;;;4.90;1.30;;;21.80;44.20;;;;;;5026351;28;20060;-66
2021/12/01 08:47:29;;;;;;;4.88;1.30;;;21.70;44.00;;;;;;5026824;28;20095;-66
2021/12/01 08:49:55;;;;;;;4.25;1.27;;;21.80;44.20;;;;;;5026682;28;20548;-65
2021/12/01 08:52:23;;;;;;;4.60;1.20;;;21.70;44.00;;;;;;5029797;28;20044;-66
2021/12/01 08:54:48;;;;;;;8.38;1.25;;;21.80;44.20;;;;;;5029474;28;20550;-66
2021/12/01 08:57:14;;;;;;;4.07;1.17;;;21.70;44.10;;;;;;5023724;28;20137;-67
2021/12/01 08:59:41;;;;;;;4.78;1.23;;;21.70;44.00;;;;;;5029320;28;20045;-66
2021/12/01 09:02:06;;;;;;;4.63;1.30;;;21.70;44.00;;;;;;5027764;28;20405;-66
2021/12/01 09:04:32;;;;;;;4.75;1.27;;;21.70;44.00;;;;;;5024851;28;20040;-66
2021/12/01 09:06:58;;;;;;;3.80;1.00;;;21.70;44.00;;;;;;5028441;28;20045;-66
2021/12/01 09:09:24;;;;;;;5.60;1.00;;;21.70;44.00;;;;;;5026179;28;20056;-66
2021/12/01 09:11:52;;;;;;;6.75;1.45;;;21.70;44.00;;;;;;5032216;28;20033;-67
2021/12/01 09:14:19;;;;;;;2.95;0.90;;;21.70;44.10;;;;;;5028726;28;20044;-66
2021/12/01 09:16:46;;;;;;;4.90;1.15;;;21.70;44.10;;;;;;5027182;28;20056;-66
2021/12/01 09:19:13;;;;;;;4.72;1.45;;;21.70;44.10;;;;;;5027221;28;20107;-67
2021/12/01 09:21:39;;;;;;;4.10;0.90;;;21.70;44.30;;;;;;5029877;28;20099;-67
2021/12/01 09:24:05;;;;;;;3.70;0.95;;;21.70;43.90;;;;;;5028642;28;20041;-67
2021/12/01 09:26:32;;;;;;;4.13;0.90;;;21.70;44.00;;;;;;5027004;28;20037;-67
2021/12/01 09:28:57;;;;;;;3.30;0.80;;;21.70;44.60;;;;;;5028700;28;20555;-67
2021/12/01 09:31:23;;;;;;;4.10;0.98;;;21.70;44.00;;;;;;5025921;28;20046;-67
2021/12/01 09:33:49;;;;;;;4.88;0.95;;;21.70;44.10;;;;;;5026661;28;20506;-67
2021/12/01 09:36:15;;;;;;;3.63;0.85;;;21.70;44.00;;;;;;5027847;28;20099;-67
2021/12/01 09:38:41;;;;;;;3.75;1.00;;;21.70;44.00;;;;;;5027344;28;20469;-67
2021/12/01 09:41:08;;;;;;;3.10;0.90;;;21.70;44.00;;;;;;5023382;28;20461;-67
2021/12/01 09:43:33;;;;;;;3.70;0.93;;;21.70;44.00;;;;;;5028373;28;20041;-67
2021/12/01 09:46:04;;;;;;;5.25;1.00;;;21.70;43.90;;;;;;5029069;28;20582;-67
2021/12/01 09:48:31;;;;;;;3.60;0.95;;;21.70;43.80;;;;;;5012927;28;20525;-67
2021/12/01 09:50:58;;;;;;;3.92;0.93;;;21.70;44.00;;;;;;5030232;28;20124;-67
2021/12/01 09:53:24;;;;;;;4.80;1.00;;;21.70;44.00;;;;;;5027400;28;20049;-67
2021/12/01 09:55:50;;;;;;;3.67;0.95;;;21.70;44.00;;;;;;5025826;28;20038;-67
2021/12/01 09:58:19;;;;;;;3.75;0.95;;;21.70;44.00;;;;;;5029838;28;20504;-67
2021/12/01 10:00:49;;;;;;;4.03;1.00;;;21.70;44.00;;;;;;5029650;28;20036;-67
2021/12/01 10:03:15;;;;;;;4.32;1.00;;;21.70;43.90;;;;;;5028508;28;20061;-66
2021/12/01 10:06:07;;;;;;;3.28;0.80;;;21.70;44.00;;;;;;5023756;28;20041;-66
2021/12/01 10:09:04;;;;;;;2.95;0.80;;;21.70;44.00;;;;;;5022602;28;20090;-67
2021/12/01 10:11:33;;;;;;;3.03;0.93;;;21.70;44.00;;;;;;5028275;28;20088;-66
2021/12/01 10:14:02;;;;;;;3.17;0.80;;;21.70;43.90;;;;;;5033399;28;20067;-66
2021/12/01 10:16:30;;;;;;;4.60;1.08;;;21.70;44.10;;;;;;5023164;28;20738;-67
2021/12/01 10:18:58;;;;;;;2.53;0.60;;;21.70;44.00;;;;;;5029336;28;20056;-66
2021/12/01 10:21:47;;;;;;;3.67;0.95;;;21.70;44.00;;;;;;5025863;28;20041;-66
2021/12/01 10:24:19;;;;;;;2.80;0.73;;;21.70;44.00;;;;;;5023912;28;20128;-66
2021/12/01 10:26:49;;;;;;;2.72;0.70;;;21.70;44.10;;;;;;5030717;28;20038;-67
2021/12/01 10:29:27;;;;;;;2.47;0.60;;;21.70;44.10;;;;;;5028545;28;20052;-66
2021/12/01 10:31:57;;;;;;;2.85;0.70;;;21.70;44.10;;;;;;5027908;28;20055;-66
2021/12/01 10:34:32;;;;;;;2.42;0.65;;;21.70;44.10;;;;;;5025288;28;21867;-66
2021/12/01 10:37:23;;;;;;;2.60;0.70;;;21.70;44.10;;;;;;5030036;28;20517;-67
2021/12/01 10:40:21;;;;;;;3.70;0.85;;;21.70;44.10;;;;;;5025466;28;20045;-66
2021/12/01 10:42:54;;;;;;;3.75;0.75;;;21.70;44.20;;;;;;5025233;28;20042;-67
2021/12/01 10:45:23;;;;;;;2.55;0.70;;;21.70;44.10;;;;;;5025831;28;20053;-66
2021/12/01 10:47:48;;;;;;;2.88;0.60;;;21.70;44.10;;;;;;5029881;28;20061;-65
2021/12/01 10:50:19;;;;;;;1.98;0.60;;;21.70;44.10;;;;;;5027872;28;20092;-66
2021/12/01 10:52:50;;;;;;;3.47;0.68;;;21.70;44.10;;;;;;5026854;28;20124;-66
2021/12/01 10:55:17;;;;;;;1.80;0.47;;;21.70;44.20;;;;;;5024091;28;20500;-66
2021/12/01 10:57:51;;;;;;;3.05;0.70;;;21.70;44.20;;;;;;5025553;28;20103;-67
2021/12/01 11:00:29;;;;;;;2.90;1.00;;;21.70;44.10;;;;;;5025394;28;20100;-66
2021/12/01 11:03:07;;;;;;;3.72;0.90;;;21.70;44.00;;;;;;5026103;28;20053;-67
2021/12/01 11:05:40;;;;;;;1.98;0.50;;;21.70;44.20;;;;;;5024944;28;20030;-67
2021/12/01 11:08:17;;;;;;;2.63;0.60;;;21.70;44.10;;;;;;5026092;28;20041;-67
2021/12/01 11:10:45;;;;;;;2.45;0.60;;;21.70;44.10;;;;;;5024359;28;20038;-67
2021/12/01 11:13:12;;;;;;;2.05;0.55;;;21.60;43.90;;;;;;5026952;28;20099;-67
2021/12/01 11:15:40;;;;;;;2.15;0.50;;;21.70;44.20;;;;;;5026687;28;20037;-67
2021/12/01 11:18:08;;;;;;;1.70;0.52;;;21.60;44.00;;;;;;5026419;28;20040;-67
2021/12/01 11:20:34;;;;;;;3.08;0.70;;;21.70;44.30;;;;;;5025258;28;20553;-67
2021/12/01 11:23:19;;;;;;;1.60;0.40;;;21.70;44.20;;;;;;5024077;28;20034;-67
2021/12/01 11:25:48;;;;;;;2.30;0.57;;;21.70;44.00;;;;;;5031560;28;20034;-67
2021/12/01 11:28:16;;;;;;;1.73;0.50;;;21.70;44.00;;;;;;5026824;28;20045;-67
2021/12/01 11:30:45;;;;;;;2.50;0.68;;;21.70;44.00;;;;;;5028873;28;20107;-67
2021/12/01 11:33:17;;;;;;;2.70;0.60;;;21.70;44.00;;;;;;5029943;28;20046;-67
2021/12/01 11:35:48;;;;;;;2.05;0.50;;;21.70;44.00;;;;;;5034205;28;20034;-67
2021/12/01 11:38:14;;;;;;;1.02;0.35;;;21.60;43.80;;;;;;5027907;28;20551;-67
2021/12/01 11:40:40;;;;;;;2.75;0.70;;;21.60;43.70;;;;;;5026693;28;20044;-67
2021/12/01 11:43:09;;;;;;;1.75;0.50;;;21.70;44.00;;;;;;5025821;28;20064;-67
2021/12/01 11:45:43;;;;;;;1.13;0.43;;;21.70;44.00;;;;;;5029148;28;20034;-66
2021/12/01 11:48:33;;;;;;;3.38;0.68;;;21.70;43.90;;;;;;5025798;28;20046;-67
2021/12/01 11:51:22;;;;;;;0.60;0.30;;;21.70;43.90;;;;;;5018930;28;20506;-67
2021/12/01 11:53:56;;;;;;;1.58;0.40;;;21.70;43.80;;;;;;5030191;28;20414;-67
2021/12/01 11:56:32;;;;;;;1.23;0.45;;;21.70;43.90;;;;;;5028954;28;20041;-66
2021/12/01 11:59:05;;;;;;;2.03;0.50;;;21.60;43.70;;;;;;5028115;28;20098;-65
2021/12/01 12:01:37;;;;;;;6.10;0.60;;;21.70;44.00;;;;;;5029671;28;20132;-66
2021/12/01 12:04:05;;;;;;;1.63;0.45;;;21.70;43.90;;;;;;5029119;28;20037;-66
2021/12/01 12:06:43;;;;;;;1.67;0.50;;;21.70;43.90;;;;;;5028653;28;20033;-66
2021/12/01 12:09:13;;;;;;;1.33;0.32;;;21.70;43.90;;;;;;5024870;28;20041;-65
2021/12/01 12:11:41;;;;;;;2.13;0.52;;;21.70;43.80;;;;;;5026261;28;20033;-66
2021/12/01 12:14:15;;;;;;;4.68;0.73;;;21.70;44.00;;;;;;5027721;28;20073;-66
2021/12/01 12:16:59;;;;;;;11.43;0.70;;;21.70;44.00;;;;;;5027036;28;20505;-66
2021/12/01 12:19:46;;;;;;;5.85;0.70;;;21.60;44.30;;;;;;5024376;28;20132;-66
2021/12/01 12:22:14;;;;;;;6.07;0.80;;;21.70;44.50;;;;;;5028526;28;20068;-66
2021/12/01 12:24:50;;;;;;;5.07;1.00;;;21.60;44.60;;;;;;5027241;28;20109;-66
2021/12/01 12:27:36;;;;;;;4.10;0.95;;;21.60;44.20;;;;;;5024088;28;20080;-66
2021/12/01 12:30:07;;;;;;;;;;;21.70;44.30;;;;;;5028473;28;20124;-66
2021/12/01 12:32:34;;;;;;;8.85;1.23;;;21.60;44.00;;;;;;5028392;28;20390;-66
2021/12/01 12:35:07;;;;;;;3.63;0.90;;;21.60;43.90;;;;;;5025652;28;20157;-66
2021/12/01 12:37:35;;;;;;;5.10;0.88;;;21.60;43.80;;;;;;5023350;28;20041;-66
2021/12/01 12:40:05;;;;;;;6.32;0.90;;;21.60;43.80;;;;;;5025008;28;20691;-66
2021/12/01 12:42:31;;;;;;;6.30;1.38;;;21.60;43.80;;;;;;5025310;28;20132;-66
2021/12/01 12:44:58;;;;;;;8.60;1.90;;;21.60;44.10;;;;;;5026083;28;20454;-66
2021/12/01 12:47:30;;;;;;;10.77;2.00;;;21.60;44.50;;;;;;5023880;28;20030;-66
2021/12/01 12:50:20;;;;;;;8.05;1.88;;;21.60;45.00;;;;;;5026654;28;20466;-66
2021/12/01 12:52:49;;;;;;;8.88;2.10;;;21.60;44.90;;;;;;5026322;28;20068;-66
2021/12/01 12:55:21;;;;;;;9.38;1.80;;;21.60;44.90;;;;;;5026335;28;20497;-66
2021/12/01 12:57:53;;;;;;;8.30;1.65;;;21.60;45.00;;;;;;5023893;28;20049;-66